createdAt,value
2023-01-02T00:00:36.610Z,1.98
2023-01-02T00:03:14.893Z,1.70
2023-01-02T00:05:50.316Z,2.20
2023-01-02T00:08:26.027Z,1.50
2023-01-02T00:11:02.591Z,1.95
2023-01-02T00:13:38.660Z,2.00
2023-01-02T00:16:16.153Z,1.90
2023-01-02T00:18:53.964Z,1.70
2023-01-02T00:21:30.028Z,1.70
2023-01-02T00:24:06.184Z,1.52
2023-01-02T00:26:42.453Z,1.80
2023-01-02T00:29:21.895Z,1.50
2023-01-02T00:31:57.893Z,1.40
2023-01-02T00:34:36.042Z,1.30
2023-01-02T00:37:11.463Z,1.42
2023-01-02T00:39:47.080Z,1.50
2023-01-02T00:42:23.716Z,1.50
2023-01-02T00:44:59.840Z,1.65
2023-01-02T00:47:38.050Z,1.50
2023-01-02T00:50:16.111Z,1.52
2023-01-02T00:52:52.025Z,1.60
2023-01-02T00:55:28.343Z,1.50
2023-01-02T00:58:04.971Z,1.70
2023-01-02T01:00:41.532Z,1.42
2023-01-02T01:03:17.352Z,1.40
2023-01-02T01:05:55.286Z,1.30
2023-01-02T01:08:30.707Z,1.35
2023-01-02T01:11:11.136Z,1.15
2023-01-02T01:13:47.930Z,1.55
2023-01-02T01:16:24.968Z,1.48
2023-01-02T01:19:01.667Z,1.40
2023-01-02T01:21:40.287Z,1.30
2023-01-02T01:24:16.449Z,1.52
2023-01-02T01:26:52.562Z,1.55
2023-01-02T01:29:28.720Z,1.80
2023-01-02T01:32:07.902Z,1.48
2023-01-02T01:34:43.825Z,1.60
2023-01-02T01:37:21.948Z,1.42
2023-01-02T01:39:57.546Z,1.58
2023-01-02T01:42:37.941Z,1.60
2023-01-02T01:45:20.499Z,1.60
2023-01-02T01:48:00.056Z,1.60
2023-01-02T01:50:38.804Z,1.75
2023-01-02T01:53:24.628Z,1.55
2023-01-02T01:56:05.119Z,1.50
2023-01-02T01:58:45.316Z,1.90
2023-01-02T02:01:23.028Z,1.80
2023-01-02T02:03:58.738Z,1.50
2023-01-02T02:06:36.055Z,1.60
2023-01-02T02:09:18.221Z,1.60
2023-01-02T02:11:54.209Z,1.55
2023-01-02T02:14:30.814Z,1.65
2023-01-02T02:17:12.283Z,1.75
2023-01-02T02:19:56.823Z,1.63
2023-01-02T02:22:49.071Z,1.73
2023-01-02T02:25:52.978Z,1.50
2023-01-02T02:28:47.964Z,1.75
2023-01-02T02:31:29.756Z,1.70
2023-01-02T02:34:05.518Z,1.60
2023-01-02T02:36:41.652Z,1.40
2023-01-02T02:39:19.082Z,1.70
2023-01-02T02:42:01.622Z,1.42
2023-01-02T02:44:46.929Z,1.60
2023-01-02T02:47:33.575Z,1.65
2023-01-02T02:50:11.870Z,1.60
2023-01-02T02:52:53.014Z,1.67
2023-01-02T02:55:31.644Z,1.50
2023-01-02T02:58:07.433Z,1.73
2023-01-02T03:00:42.386Z,1.65
2023-01-02T03:03:26.153Z,1.45
2023-01-02T03:06:19.516Z,1.60
2023-01-02T03:09:01.700Z,1.70
2023-01-02T03:11:46.938Z,1.50
2023-01-02T03:14:33.722Z,1.67
2023-01-02T03:17:12.781Z,1.80
2023-01-02T03:19:54.752Z,1.48
2023-01-02T03:22:36.682Z,1.70
2023-01-02T03:25:17.022Z,1.70
2023-01-02T03:27:54.553Z,1.60
2023-01-02T03:30:33.502Z,1.50
2023-01-02T03:33:13.504Z,2.10
2023-01-02T03:35:54.741Z,1.85
2023-01-02T03:38:33.143Z,1.70
2023-01-02T03:41:13.740Z,2.20
2023-01-02T03:43:56.588Z,1.60
2023-01-02T03:46:38.223Z,1.55
2023-01-02T03:49:19.494Z,2.13
2023-01-02T03:51:58.146Z,1.90
2023-01-02T03:54:34.585Z,1.50
2023-01-02T03:57:15.284Z,1.90
2023-01-02T03:59:54.541Z,1.90
2023-01-02T04:02:31.237Z,1.92
2023-01-02T04:05:16.570Z,1.77
2023-01-02T04:08:00.898Z,1.85
2023-01-02T04:10:39.532Z,2.15
2023-01-02T04:13:20.710Z,1.95
2023-01-02T04:15:58.509Z,1.83
2023-01-02T04:18:40.286Z,1.73
2023-01-02T04:21:23.009Z,2.13
2023-01-02T04:24:04.627Z,1.80
2023-01-02T04:26:45.922Z,1.77
2023-01-02T04:29:23.044Z,1.77
2023-01-02T04:32:01.844Z,2.00
2023-01-02T04:34:40.493Z,1.85
2023-01-02T04:37:33.459Z,1.90
2023-01-02T04:40:15.728Z,1.90
2023-01-02T04:42:52.740Z,1.60
2023-01-02T04:45:27.608Z,2.03
2023-01-02T04:48:06.652Z,2.28
2023-01-02T04:50:41.483Z,2.00
2023-01-02T04:53:17.125Z,1.70
2023-01-02T04:56:00.404Z,2.00
2023-01-02T04:58:37.158Z,1.80
2023-01-02T05:01:15.484Z,2.08
2023-01-02T05:03:53.273Z,1.50
2023-01-02T05:06:28.883Z,1.60
2023-01-02T05:09:06.163Z,1.85
2023-01-02T05:11:43.946Z,1.65
2023-01-02T05:14:19.547Z,1.85
2023-01-02T05:16:56.576Z,1.67
2023-01-02T05:19:33.217Z,1.70
2023-01-02T05:22:24.606Z,2.00
2023-01-02T05:25:00.604Z,1.60
2023-01-02T05:27:38.360Z,1.65
2023-01-02T05:30:15.602Z,1.90
2023-01-02T05:32:51.115Z,1.83
2023-01-02T05:35:32.126Z,1.50
2023-01-02T05:38:08.985Z,1.60
2023-01-02T05:40:47.919Z,1.65
2023-01-02T05:43:26.669Z,1.83
2023-01-02T05:46:01.238Z,2.00
2023-01-02T05:48:37.360Z,1.80
2023-01-02T05:51:16.745Z,2.00
2023-01-02T05:53:55.087Z,2.17
2023-01-02T05:56:34.020Z,1.90
2023-01-02T05:59:12.896Z,1.95
2023-01-02T06:01:50.827Z,2.10
2023-01-02T06:04:26.880Z,2.10
2023-01-02T06:07:01.383Z,2.20
2023-01-02T06:09:37.239Z,1.90
2023-01-02T06:12:14.591Z,2.28
2023-01-02T06:14:53.305Z,2.50
2023-01-02T06:17:28.759Z,2.10
2023-01-02T06:20:04.769Z,2.30
2023-01-02T06:22:41.404Z,2.22
2023-01-02T06:25:17.159Z,2.13
2023-01-02T06:27:53.485Z,2.05
2023-01-02T06:30:31.097Z,2.60
2023-01-02T06:33:07.850Z,2.55
2023-01-02T06:35:43.641Z,2.60
2023-01-02T06:38:20.680Z,2.85
2023-01-02T06:40:58.056Z,2.45
2023-01-02T06:43:37.044Z,2.25
2023-01-02T06:46:13.916Z,2.47
2023-01-02T06:48:48.662Z,2.58
2023-01-02T06:51:24.033Z,2.60
2023-01-02T06:53:59.406Z,2.70
2023-01-02T06:56:34.704Z,2.92
2023-01-02T06:59:09.678Z,2.63
2023-01-02T07:01:47.463Z,3.33
2023-01-02T07:04:24.239Z,2.70
2023-01-02T07:06:59.076Z,2.60
2023-01-02T07:09:35.148Z,2.60
2023-01-02T07:12:12.432Z,2.80
2023-01-02T07:14:48.809Z,2.55
2023-01-02T07:17:25.409Z,2.97
2023-01-02T07:20:02.331Z,2.78
2023-01-02T07:22:37.246Z,2.80
2023-01-02T07:25:12.900Z,2.50
2023-01-02T07:27:48.351Z,3.13
2023-01-02T07:30:24.751Z,2.85
2023-01-02T07:33:02.177Z,2.78
2023-01-02T07:35:37.918Z,2.92
2023-01-02T07:38:16.435Z,2.90
2023-01-02T07:41:09.304Z,3.15
2023-01-02T07:44:01.970Z,3.00
2023-01-02T07:46:38.507Z,2.63
2023-01-02T07:49:17.408Z,3.00
2023-01-02T07:51:54.507Z,2.88
2023-01-02T07:54:29.267Z,3.10
2023-01-02T07:57:05.247Z,2.53
2023-01-02T07:59:40.405Z,3.30
2023-01-02T08:02:15.988Z,3.10
2023-01-02T08:04:55.071Z,2.92
2023-01-02T08:07:33.028Z,2.80
2023-01-02T08:10:07.992Z,3.03
2023-01-02T08:12:42.801Z,2.88
2023-01-02T08:15:18.649Z,2.83
2023-01-02T08:17:55.808Z,2.88
2023-01-02T08:20:35.090Z,2.92
2023-01-02T08:23:12.069Z,3.20
2023-01-02T08:25:52.747Z,3.25
2023-01-02T08:28:34.643Z,3.58
2023-01-02T08:31:14.852Z,3.35
2023-01-02T08:33:51.553Z,2.80
2023-01-02T08:36:29.245Z,2.88
2023-01-02T08:39:06.203Z,3.28
2023-01-02T08:41:42.710Z,3.28
2023-01-02T08:44:18.471Z,3.22
2023-01-02T08:46:54.074Z,3.08
2023-01-02T08:49:31.277Z,3.42
2023-01-02T08:52:08.922Z,3.17
2023-01-02T08:54:44.577Z,3.10
2023-01-02T08:57:20.720Z,3.58
2023-01-02T08:59:57.333Z,3.58
2023-01-02T09:02:33.252Z,3.22
2023-01-02T09:05:10.311Z,3.20
2023-01-02T09:07:47.875Z,3.25
2023-01-02T09:10:24.563Z,3.63
2023-01-02T09:13:01.096Z,3.05
2023-01-02T09:15:36.631Z,3.70
2023-01-02T09:18:12.457Z,3.30
2023-01-02T09:20:50.060Z,3.60
2023-01-02T09:23:27.596Z,2.80
2023-01-02T09:26:05.721Z,3.60
2023-01-02T09:28:42.404Z,4.18
2023-01-02T09:31:20.421Z,3.13
2023-01-02T09:33:57.390Z,3.42
2023-01-02T09:36:34.147Z,3.20
2023-01-02T09:39:12.020Z,3.42
2023-01-02T09:41:49.435Z,3.45
2023-01-02T09:44:29.914Z,3.33
2023-01-02T09:47:09.067Z,3.90
2023-01-02T09:49:50.939Z,3.50
2023-01-02T09:52:32.514Z,3.38
2023-01-02T09:55:18.461Z,3.78
2023-01-02T09:58:01.979Z,3.30
2023-01-02T10:00:40.536Z,3.92
2023-01-02T10:03:23.069Z,3.85
2023-01-02T10:06:20.931Z,3.75
2023-01-02T10:09:09.550Z,3.78
2023-01-02T10:11:59.865Z,3.83
2023-01-02T10:14:47.266Z,3.28
2023-01-02T10:17:23.901Z,3.25
2023-01-02T10:20:03.944Z,3.47
2023-01-02T10:22:47.049Z,3.53
2023-01-02T10:25:28.525Z,3.75
2023-01-02T10:28:15.836Z,3.20
2023-01-02T10:30:56.970Z,3.20
2023-01-02T10:33:40.985Z,3.70
2023-01-02T10:36:28.521Z,3.85
2023-01-02T10:39:05.429Z,4.13
2023-01-02T10:41:41.970Z,3.67
2023-01-02T10:44:30.223Z,3.50
2023-01-02T10:47:18.964Z,3.70
2023-01-02T10:49:56.900Z,3.80
2023-01-02T10:52:36.756Z,3.28
2023-01-02T10:55:12.925Z,3.33
2023-01-02T10:57:52.838Z,3.25
2023-01-02T11:00:35.317Z,3.58
2023-01-02T11:03:19.463Z,3.47
2023-01-02T11:06:02.097Z,3.42
2023-01-02T11:08:47.148Z,3.13
2023-01-02T11:11:23.809Z,3.95
2023-01-02T11:14:00.691Z,3.90
2023-01-02T11:16:41.839Z,3.75
2023-01-02T11:19:29.621Z,3.80
2023-01-02T11:22:06.597Z,3.63
2023-01-02T11:25:00.657Z,3.78
2023-01-02T11:27:39.732Z,3.60
2023-01-02T11:30:35.414Z,3.47
2023-01-02T11:33:25.494Z,3.60
2023-01-02T11:36:02.568Z,3.72
2023-01-02T11:38:47.788Z,3.67
2023-01-02T11:41:47.240Z,3.60
2023-01-02T11:44:28.540Z,3.33
2023-01-02T11:47:04.857Z,3.70
2023-01-02T11:49:46.795Z,3.60
2023-01-02T11:52:26.634Z,3.53
2023-01-02T11:55:05.047Z,3.63
2023-01-02T11:57:50.276Z,4.20
2023-01-02T12:00:39.205Z,3.58
2023-01-02T12:03:22.716Z,3.50
2023-01-02T12:06:08.647Z,3.22
2023-01-02T12:08:56.779Z,3.60
2023-01-02T12:11:54.818Z,3.40
2023-01-02T12:14:35.757Z,3.38
2023-01-02T12:17:13.061Z,4.07
2023-01-02T12:20:08.608Z,3.33
2023-01-02T12:23:20.312Z,3.50
2023-01-02T12:26:09.571Z,3.65
2023-01-02T12:29:13.543Z,3.28
2023-01-02T12:32:43.119Z,3.65
2023-01-02T12:35:58.924Z,3.28
2023-01-02T12:38:48.199Z,3.50
2023-01-02T12:41:32.189Z,3.50
2023-01-02T12:44:27.252Z,3.60
2023-01-02T12:47:30.799Z,3.30
2023-01-02T12:50:49.253Z,2.95
2023-01-02T12:53:44.352Z,3.25
2023-01-02T12:56:23.139Z,3.67
2023-01-02T12:59:23.938Z,3.70
2023-01-02T13:02:03.314Z,3.30
2023-01-02T13:04:41.776Z,3.80
2023-01-02T13:07:21.942Z,3.90
2023-01-02T13:10:02.864Z,3.63
2023-01-02T13:12:38.294Z,3.38
2023-01-02T13:15:14.934Z,3.92
2023-01-02T13:17:57.881Z,3.60
2023-01-02T13:20:37.595Z,3.47
2023-01-02T13:23:19.748Z,3.72
2023-01-02T13:25:58.118Z,4.13
2023-01-02T13:28:33.271Z,3.45
2023-01-02T13:31:44.802Z,3.47
2023-01-02T13:34:06.970Z,4.18
2023-01-02T13:36:43.399Z,3.65
2023-01-02T13:39:22.997Z,3.63
2023-01-02T13:42:17.465Z,3.10
2023-01-02T13:44:56.347Z,3.80
2023-01-02T13:47:35.453Z,4.05
2023-01-02T13:50:13.872Z,4.00
2023-01-02T13:53:00.137Z,3.97
2023-01-02T13:55:35.575Z,3.03
2023-01-02T13:58:28.028Z,3.58
2023-01-02T14:01:25.300Z,3.92
2023-01-02T14:04:14.880Z,3.40
2023-01-02T14:06:54.095Z,4.00
2023-01-02T14:09:29.718Z,3.40
2023-01-02T14:12:06.480Z,3.78
2023-01-02T14:14:47.809Z,3.72
2023-01-02T14:17:30.439Z,4.57
2023-01-02T14:20:19.807Z,3.40
2023-01-02T14:22:55.892Z,3.67
2023-01-02T14:25:31.959Z,4.10
2023-01-02T14:28:08.659Z,4.57
2023-01-02T14:30:44.217Z,4.75
2023-01-02T14:33:23.203Z,3.72
2023-01-02T14:36:00.208Z,4.82
2023-01-02T14:38:38.068Z,3.70
2023-01-02T14:41:32.973Z,4.05
2023-01-02T14:44:08.366Z,3.92
2023-01-02T14:46:43.585Z,3.67
2023-01-02T14:49:25.045Z,4.38
2023-01-02T14:52:04.767Z,4.07
2023-01-02T14:54:46.846Z,3.72
2023-01-02T14:57:30.794Z,3.97
2023-01-02T15:00:06.936Z,3.95
2023-01-02T15:02:44.946Z,3.78
2023-01-02T15:05:25.914Z,4.22
2023-01-02T15:08:03.674Z,4.25
2023-01-02T15:10:38.366Z,4.07
2023-01-02T15:13:13.557Z,4.47
2023-01-02T15:15:50.750Z,4.43
2023-01-02T15:18:28.585Z,4.13
2023-01-02T15:21:08.217Z,4.47
2023-01-02T15:23:47.249Z,4.28
2023-01-02T15:26:32.590Z,4.47
2023-01-02T15:29:15.444Z,4.50
2023-01-02T15:31:57.566Z,4.50
2023-01-02T15:34:35.678Z,4.72
2023-01-02T15:37:12.708Z,4.55
2023-01-02T15:39:49.332Z,3.83
2023-01-02T15:42:44.461Z,4.40
2023-01-02T15:45:20.816Z,4.18
2023-01-02T15:47:57.298Z,3.95
2023-01-02T15:50:32.992Z,4.05
2023-01-02T15:53:10.919Z,4.10
2023-01-02T15:55:45.890Z,3.63
2023-01-02T15:58:28.925Z,4.00
2023-01-02T16:01:20.862Z,4.30
2023-01-02T16:04:01.589Z,3.97
2023-01-02T16:06:38.970Z,4.35
2023-01-02T16:09:24.292Z,4.25
2023-01-02T16:12:00.838Z,4.25
2023-01-02T16:14:37.667Z,4.05
2023-01-02T16:17:16.675Z,4.05
2023-01-02T16:19:58.942Z,4.25
2023-01-02T16:22:35.613Z,4.18
2023-01-02T16:25:13.804Z,4.30
2023-01-02T16:27:53.030Z,4.15
2023-01-02T16:30:37.837Z,4.88
2023-01-02T16:33:26.380Z,4.28
2023-01-02T16:36:01.806Z,4.45
2023-01-02T16:38:36.952Z,3.60
2023-01-02T16:41:13.968Z,4.32
2023-01-02T16:43:51.685Z,4.15
2023-01-02T16:46:26.392Z,3.35
2023-01-02T16:49:05.351Z,3.80
2023-01-02T16:51:44.454Z,3.20
2023-01-02T16:54:20.932Z,3.15
2023-01-02T16:56:57.438Z,4.15
2023-01-02T16:59:32.485Z,3.72
2023-01-02T17:02:07.967Z,4.07
2023-01-02T17:04:43.895Z,3.65
2023-01-02T17:07:22.071Z,3.83
2023-01-02T17:09:57.825Z,3.40
2023-01-02T17:12:41.303Z,3.78
2023-01-02T17:15:19.454Z,3.50
2023-01-02T17:17:54.060Z,3.90
2023-01-02T17:20:29.586Z,3.25
2023-01-02T17:23:04.717Z,3.58
2023-01-02T17:25:40.094Z,3.30
2023-01-02T17:28:16.570Z,3.30
2023-01-02T17:30:53.145Z,3.25
2023-01-02T17:33:28.340Z,3.40
2023-01-02T17:36:04.733Z,3.65
2023-01-02T17:38:39.811Z,3.45
2023-01-02T17:41:14.723Z,3.30
2023-01-02T17:44:01.684Z,3.15
2023-01-02T17:47:09.525Z,3.92
2023-01-02T17:49:33.229Z,3.92
2023-01-02T17:52:08.728Z,4.03
2023-01-02T17:54:49.876Z,3.80
2023-01-02T17:57:30.085Z,4.18
2023-01-02T18:00:06.518Z,4.18
2023-01-02T18:02:46.406Z,4.45
2023-01-02T18:05:21.397Z,4.35
2023-01-02T18:07:57.273Z,3.97
2023-01-02T18:10:33.505Z,4.30
2023-01-02T18:13:08.513Z,4.00
2023-01-02T18:15:45.439Z,4.45
2023-01-02T18:18:25.672Z,4.30
2023-01-02T18:21:00.276Z,4.07
2023-01-02T18:23:35.591Z,4.03
2023-01-02T18:26:13.986Z,3.95
2023-01-02T18:28:53.344Z,3.60
2023-01-02T18:31:30.502Z,3.40
2023-01-02T18:34:06.537Z,3.85
2023-01-02T18:36:42.134Z,3.95
2023-01-02T18:39:22.077Z,4.18
2023-01-02T18:41:57.159Z,3.67
2023-01-02T18:44:32.675Z,3.92
2023-01-02T18:47:24.450Z,3.25
2023-01-02T18:50:00.168Z,3.60
2023-01-02T18:52:38.607Z,3.63
2023-01-02T18:55:28.909Z,3.33
2023-01-02T18:58:05.971Z,3.13
2023-01-02T19:00:41.463Z,3.50
2023-01-02T19:03:22.720Z,3.70
2023-01-02T19:05:57.923Z,3.40
2023-01-02T19:08:36.423Z,3.47
2023-01-02T19:11:30.674Z,3.40
2023-01-02T19:14:07.363Z,3.88
2023-01-02T19:16:42.608Z,3.75
2023-01-02T19:19:21.027Z,3.65
2023-01-02T19:21:56.201Z,3.47
2023-01-02T19:24:40.676Z,3.90
2023-01-02T19:27:21.393Z,3.60
2023-01-02T19:29:56.492Z,3.25
2023-01-02T19:32:33.122Z,3.85
2023-01-02T19:35:16.026Z,3.70
2023-01-02T19:37:51.751Z,3.70
2023-01-02T19:40:26.969Z,3.40
2023-01-02T19:43:02.827Z,4.00
2023-01-02T19:45:37.425Z,4.32
2023-01-02T19:48:17.798Z,4.03
2023-01-02T19:50:54.596Z,4.05
2023-01-02T19:53:29.916Z,4.65
2023-01-02T19:56:04.633Z,4.20
2023-01-02T19:58:40.579Z,3.80
2023-01-02T20:01:15.198Z,4.88
2023-01-02T20:03:50.471Z,4.13
2023-01-02T20:06:27.195Z,4.65
2023-01-02T20:09:02.649Z,4.15
2023-01-02T20:11:53.232Z,3.88
2023-01-02T20:14:29.240Z,4.78
2023-01-02T20:17:03.810Z,3.95
2023-01-02T20:19:39.322Z,4.13
2023-01-02T20:22:16.255Z,4.00
2023-01-02T20:24:51.656Z,3.38
2023-01-02T20:27:26.809Z,4.03
2023-01-02T20:30:02.639Z,3.72
2023-01-02T20:32:37.435Z,3.35
2023-01-02T20:35:13.073Z,3.70
2023-01-02T20:37:49.683Z,3.42
2023-01-02T20:40:24.711Z,3.78
2023-01-02T20:42:59.375Z,3.63
2023-01-02T20:45:35.478Z,3.50
2023-01-02T20:48:10.722Z,3.55
2023-01-02T20:50:46.144Z,3.40
2023-01-02T20:53:22.938Z,2.95
2023-01-02T20:55:58.176Z,3.10
2023-01-02T20:58:32.794Z,3.35
2023-01-02T21:01:08.793Z,3.33
2023-01-02T21:03:43.361Z,3.30
2023-01-02T21:06:18.587Z,3.10
2023-01-02T21:08:55.001Z,3.35
2023-01-02T21:11:30.291Z,3.28
2023-01-02T21:14:06.383Z,3.50
2023-01-02T21:16:44.668Z,3.55
2023-01-02T21:19:20.873Z,3.22
2023-01-02T21:21:56.101Z,2.63
2023-01-02T21:24:33.592Z,2.97
2023-01-02T21:27:13.144Z,2.92
2023-01-02T21:29:48.989Z,2.63
2023-01-02T21:32:25.780Z,2.47
2023-01-02T21:35:01.118Z,2.80
2023-01-02T21:37:37.716Z,2.90
2023-01-02T21:40:16.773Z,3.20
2023-01-02T21:42:53.457Z,2.80
2023-01-02T21:45:29.095Z,2.88
2023-01-02T21:48:05.935Z,3.20
2023-01-02T21:50:41.760Z,2.50
2023-01-02T21:53:18.552Z,2.85
2023-01-02T21:55:56.003Z,3.08
2023-01-02T21:58:32.097Z,3.20
2023-01-02T22:01:07.491Z,3.13
2023-01-02T22:03:44.218Z,2.90
2023-01-02T22:06:20.099Z,3.05
2023-01-02T22:08:56.440Z,2.90
2023-01-02T22:11:49.975Z,2.80
2023-01-02T22:14:28.493Z,2.90
2023-01-02T22:17:05.028Z,3.15
2023-01-02T22:19:42.406Z,2.83
2023-01-02T22:22:17.798Z,3.00
2023-01-02T22:24:55.146Z,3.15
2023-01-02T22:27:32.681Z,3.30
2023-01-02T22:30:33.142Z,3.17
2023-01-02T22:33:04.948Z,3.13
2023-01-02T22:35:42.226Z,2.95
2023-01-02T22:38:18.085Z,3.30
2023-01-02T22:40:54.742Z,2.83
2023-01-02T22:43:34.725Z,2.75
2023-01-02T22:46:15.106Z,3.38
2023-01-02T22:48:50.591Z,2.58
2023-01-02T22:52:04.990Z,2.63
2023-01-02T22:54:25.711Z,2.92
2023-01-02T22:57:01.898Z,2.80
2023-01-02T22:59:39.487Z,2.90
2023-01-02T23:02:19.757Z,2.53
2023-01-02T23:04:55.325Z,2.70
2023-01-02T23:07:31.792Z,2.97
2023-01-02T23:10:07.391Z,2.97
2023-01-02T23:12:43.610Z,2.92
2023-01-02T23:15:21.474Z,2.97
2023-01-02T23:18:13.046Z,3.15
2023-01-02T23:20:48.523Z,2.97
2023-01-02T23:23:25.092Z,3.03
2023-01-02T23:26:04.610Z,2.78
2023-01-02T23:29:05.734Z,2.90
2023-01-02T23:31:38.343Z,2.95
2023-01-02T23:34:15.520Z,2.72
2023-01-02T23:36:51.627Z,3.10
2023-01-02T23:39:29.266Z,3.13
2023-01-02T23:42:04.856Z,2.83
2023-01-02T23:44:41.615Z,2.88
2023-01-02T23:47:19.533Z,2.75
2023-01-02T23:49:55.164Z,2.60
2023-01-02T23:52:30.583Z,2.83
2023-01-02T23:55:07.413Z,3.22
2023-01-02T23:57:43.224Z,2.80
